Time;durP1;ratioP1;P1;durP2;ratioP2;P2;SDS_P1;SDS_P2;PMS_P1;PMS_P2;Temp;Humidity;BMP_temperature;BMP_pressure;BME280_temperature;BME280_humidity;BME280_pressure;Samples;Min_cycle;Max_cycle;Signal;HPM_P1;HPM_P2
2022/03/22 00:00:56;;;;;;;15.87;10.47;;;;;;;10.58;39.41;100276.59;4154478;28;20279;-36
2022/03/22 00:02:59;;;;;;;15.47;10.90;;;;;;;10.56;39.23;100274.06;4154692;28;20236;-36
2022/03/22 00:05:01;;;;;;;15.63;11.90;;;;;;;10.80;38.86;100262.09;4148399;28;20228;-35
2022/03/22 00:07:02;;;;;;;19.13;11.70;;;;;;;10.83;39.00;100264.47;4160161;28;20241;-36
2022/03/22 00:09:04;;;;;;;14.83;11.20;;;;;;;10.76;39.13;100261.56;4161274;28;20238;-36
2022/03/22 00:11:06;;;;;;;15.07;10.37;;;;;;;10.77;39.07;100273.06;4159118;28;20710;-36
2022/03/22 00:13:18;;;;;;;15.23;10.60;;;;;;;10.69;39.05;100267.59;4160055;28;20240;-36
2022/03/22 00:15:20;;;;;;;14.87;11.30;;;;;;;10.80;38.65;100268.28;4159674;28;20345;-36
2022/03/22 00:17:42;;;;;;;16.60;10.60;;;;;;;10.66;39.02;100275.88;4161206;28;20744;-35
2022/03/22 00:19:44;;;;;;;14.73;11.50;;;;;;;10.62;38.80;100275.34;4157608;28;20260;-35
2022/03/22 00:21:46;;;;;;;16.00;11.00;;;;;;;10.86;38.59;100272.16;4160810;28;20229;-36
2022/03/22 00:23:48;;;;;;;15.20;11.53;;;;;;;10.75;38.75;100277.63;4160672;28;20237;-36
2022/03/22 00:25:50;;;;;;;15.13;10.40;;;;;;;10.73;38.76;100277.78;4159993;28;20304;-34
2022/03/22 00:27:56;;;;;;;15.67;11.07;;;;;;;10.87;38.78;100271.19;4160852;28;20232;-35
2022/03/22 00:29:58;;;;;;;15.87;11.30;;;;;;;10.57;38.80;100286.41;4160978;28;20244;-36
2022/03/22 00:32:00;;;;;;;17.07;11.47;;;;;;;10.71;38.84;100277.09;4160462;28;20240;-34
2022/03/22 00:34:01;;;;;;;16.40;11.20;;;;;;;10.50;39.01;100276.47;4159762;28;20221;-36
2022/03/22 00:36:04;;;;;;;17.20;11.77;;;;;;;10.93;38.70;100269.75;4153333;28;20224;-34
2022/03/22 00:38:11;;;;;;;18.50;13.07;;;;;;;10.95;38.44;100273.09;4153135;28;20236;-35
2022/03/22 00:40:19;;;;;;;19.60;13.63;;;;;;;10.64;38.98;100273.34;4159386;28;20233;-36
2022/03/22 00:42:21;;;;;;;17.30;13.33;;;;;;;10.69;39.04;100280.91;4160693;28;20301;-36
2022/03/22 00:44:23;;;;;;;18.07;14.67;;;;;;;10.59;39.33;100280.94;4153409;28;20233;-36
2022/03/22 00:46:25;;;;;;;17.67;14.03;;;;;;;10.46;39.61;100267.13;4156591;28;20229;-35
2022/03/22 00:48:27;;;;;;;16.23;13.17;;;;;;;10.31;39.82;100286.19;4160461;28;20233;-36
2022/03/22 00:50:36;;;;;;;21.13;13.10;;;;;;;10.24;39.86;100274.47;4160432;28;20287;-35
2022/03/22 00:52:37;;;;;;;15.90;11.30;;;;;;;10.13;40.21;100275.50;4160288;28;20240;-36
2022/03/22 00:54:39;;;;;;;16.20;11.37;;;;;;;9.97;39.85;100297.31;4160047;28;20242;-35
2022/03/22 00:56:42;;;;;;;15.70;11.63;;;;;;;9.87;39.94;100286.72;4160294;28;20237;-35
2022/03/22 00:58:43;;;;;;;15.50;11.90;;;;;;;9.76;39.90;100270.91;4159973;28;20236;-35
2022/03/22 01:00:47;;;;;;;14.40;10.70;;;;;;;9.56;39.84;100266.56;4160223;28;20234;-35
2022/03/22 01:02:49;;;;;;;13.30;10.70;;;;;;;9.62;39.94;100274.00;4160150;28;20787;-35
2022/03/22 01:04:51;;;;;;;13.17;10.47;;;;;;;9.86;39.76;100265.59;4154217;28;20620;-35
2022/03/22 01:06:53;;;;;;;15.30;11.53;;;;;;;9.83;39.77;100272.03;4152944;28;20233;-36
2022/03/22 01:08:55;;;;;;;13.23;10.93;;;;;;;9.45;40.16;100259.56;4158072;28;20304;-36
2022/03/22 01:10:57;;;;;;;16.20;11.63;;;;;;;9.46;40.20;100259.44;4156336;28;20309;-36
2022/03/22 01:12:59;;;;;;;15.27;10.63;;;;;;;9.36;40.28;100260.41;4159287;28;20248;-35
2022/03/22 01:15:05;;;;;;;17.10;12.20;;;;;;;9.40;40.43;100256.50;4158253;28;20612;-35
2022/03/22 01:17:07;;;;;;;18.43;10.73;;;;;;;9.29;40.58;100249.50;4158516;28;20963;-36
2022/03/22 01:19:09;;;;;;;19.60;11.33;;;;;;;9.43;40.51;100251.75;4159550;28;20788;-35
2022/03/22 01:21:10;;;;;;;16.40;11.40;;;;;;;9.14;40.71;100246.41;4159634;28;20247;-35
2022/03/22 01:23:13;;;;;;;14.83;10.30;;;;;;;9.16;41.06;100240.97;4159573;28;20249;-36
2022/03/22 01:25:20;;;;;;;17.77;10.77;;;;;;;9.19;40.57;100241.53;4153713;28;20279;-36
2022/03/22 01:27:22;;;;;;;15.40;11.10;;;;;;;9.21;40.72;100238.75;4159790;28;20235;-35
2022/03/22 01:29:23;;;;;;;14.70;11.20;;;;;;;9.29;40.58;100236.25;4160081;28;20248;-36
2022/03/22 01:31:25;;;;;;;16.70;11.60;;;;;;;9.23;40.74;100239.44;4159228;28;20240;-36
2022/03/22 01:33:27;;;;;;;16.67;12.50;;;;;;;9.08;40.63;100244.31;4159714;28;20238;-36
2022/03/22 01:35:30;;;;;;;18.07;12.13;;;;;;;9.14;40.58;100235.81;4152087;28;20599;-36
2022/03/22 01:37:33;;;;;;;16.33;12.93;;;;;;;9.03;40.07;100239.44;4155050;28;20235;-36
2022/03/22 01:39:35;;;;;;;18.33;13.53;;;;;;;9.12;40.59;100227.97;4159380;28;20732;-34
2022/03/22 01:41:36;;;;;;;16.90;12.47;;;;;;;9.10;40.44;100227.28;4159645;28;20240;-35
2022/03/22 01:43:38;;;;;;;17.50;12.53;;;;;;;9.20;40.40;100221.13;4155899;28;20248;-34
2022/03/22 01:45:40;;;;;;;17.03;13.50;;;;;;;9.05;40.46;100234.00;4151653;28;20237;-36
2022/03/22 01:47:43;;;;;;;17.10;12.97;;;;;;;9.27;40.54;100219.63;4159502;28;20232;-36
2022/03/22 01:49:47;;;;;;;18.20;12.73;;;;;;;9.09;40.70;100214.97;4159600;28;20224;-36
2022/03/22 01:51:51;;;;;;;16.37;13.03;;;;;;;9.25;40.28;100218.91;4158901;28;20232;-36
2022/03/22 01:53:55;;;;;;;17.90;12.20;;;;;;;9.13;40.36;100226.16;4159201;28;20249;-36
2022/03/22 01:55:57;;;;;;;14.40;12.07;;;;;;;8.99;40.72;100224.75;4160915;28;20260;-36
2022/03/22 01:57:59;;;;;;;15.63;11.90;;;;;;;9.16;40.28;100214.44;4151322;28;20234;-36
2022/03/22 02:00:07;;;;;;;15.57;12.13;;;;;;;9.31;40.05;100218.34;4159238;28;20240;-35
2022/03/22 02:06:56;;;;;;;21.53;13.63;;;;;;;9.09;40.36;100208.84;4157500;28;20357;-34
2022/03/22 02:08:58;;;;;;;15.73;11.70;;;;;;;8.96;40.50;100201.16;4159284;28;20252;-36
2022/03/22 02:11:00;;;;;;;14.57;11.07;;;;;;;9.06;40.38;100202.00;4156350;28;20240;-36
2022/03/22 02:13:03;;;;;;;17.60;12.03;;;;;;;9.07;40.62;100203.69;4158089;28;20661;-33
2022/03/22 02:15:05;;;;;;;13.97;10.57;;;;;;;8.98;40.57;100206.31;4154382;28;20789;-33
2022/03/22 02:17:09;;;;;;;13.87;11.13;;;;;;;9.17;40.17;100206.34;4157334;28;20271;-33
2022/03/22 02:19:14;;;;;;;15.97;10.97;;;;;;;9.05;40.68;100200.34;4158595;28;20233;-34
2022/03/22 02:21:19;;;;;;;17.40;12.37;;;;;;;9.10;40.42;100200.75;4157247;28;20418;-33
2022/03/22 02:23:34;;;;;;;17.13;13.43;;;;;;;8.97;40.68;100202.84;4158276;28;20935;-34
2022/03/22 02:25:36;;;;;;;20.27;14.10;;;;;;;8.95;40.53;100202.97;4158192;28;20240;-34
2022/03/22 02:27:37;;;;;;;17.60;13.50;;;;;;;9.07;40.53;100201.03;4158431;28;20576;-34
2022/03/22 02:29:39;;;;;;;20.03;13.20;;;;;;;9.05;40.44;100200.34;4158631;28;20236;-34
2022/03/22 02:31:41;;;;;;;19.33;13.40;;;;;;;8.76;40.73;100210.88;4152550;28;20229;-34
2022/03/22 02:33:43;;;;;;;19.20;13.03;;;;;;;8.92;40.67;100203.25;4158254;28;20224;-33
2022/03/22 02:35:45;;;;;;;17.27;12.60;;;;;;;9.25;40.27;100202.97;4151245;28;20262;-35
2022/03/22 02:37:48;;;;;;;18.40;13.50;;;;;;;9.28;39.99;100208.00;4158039;28;20713;-33
2022/03/22 02:39:49;;;;;;;15.87;12.47;;;;;;;8.77;40.36;100226.66;4158370;28;20245;-33
2022/03/22 02:41:51;;;;;;;17.43;13.80;;;;;;;8.75;41.14;100215.34;4158442;28;20236;-33
2022/03/22 02:43:53;;;;;;;18.67;13.00;;;;;;;8.49;41.40;100201.75;4157478;28;20244;-34
2022/03/22 02:45:55;;;;;;;21.20;13.17;;;;;;;8.74;40.63;100194.28;4153509;28;20283;-33
2022/03/22 02:47:58;;;;;;;17.40;12.60;;;;;;;8.71;40.64;100213.94;4155350;28;20244;-33
2022/03/22 02:49:59;;;;;;;14.43;11.00;;;;;;;8.22;41.30;100210.22;4153813;28;20236;-33
2022/03/22 02:52:01;;;;;;;15.13;11.13;;;;;;;8.45;41.33;100191.53;4158277;28;20613;-33
2022/03/22 02:54:03;;;;;;;16.43;11.50;;;;;;;7.93;42.08;100202.97;4156570;28;20228;-33
2022/03/22 02:56:05;;;;;;;17.67;11.93;;;;;;;8.38;41.16;100200.03;4149881;28;20228;-34
2022/03/22 02:58:06;;;;;;;21.03;11.73;;;;;;;8.26;41.32;100206.38;4157660;28;20259;-33
2022/03/22 03:00:11;;;;;;;15.60;11.23;;;;;;;7.84;41.81;100204.59;4158378;28;20247;-33
2022/03/22 03:02:12;;;;;;;16.67;12.30;;;;;;;7.98;41.80;100195.47;4152222;28;20240;-33
2022/03/22 03:04:14;;;;;;;16.30;11.80;;;;;;;7.88;41.88;100201.69;4156079;28;20327;-35
2022/03/22 03:06:16;;;;;;;15.17;11.40;;;;;;;7.81;42.30;100188.16;4151377;28;20282;-33
2022/03/22 03:08:19;;;;;;;14.33;11.00;;;;;;;7.78;41.91;100197.19;4154187;28;20287;-34
2022/03/22 03:10:20;;;;;;;22.90;12.23;;;;;;;7.70;42.04;100204.09;4153565;28;20298;-34
2022/03/22 03:12:22;;;;;;;13.73;11.03;;;;;;;7.61;41.93;100209.22;4157972;28;20596;-34
2022/03/22 03:14:39;;;;;;;17.47;11.07;;;;;;;7.39;42.22;100202.19;4157525;28;20239;-33
2022/03/22 03:16:41;;;;;;;19.93;11.60;;;;;;;7.41;42.35;100205.56;4156479;28;20236;-34
2022/03/22 03:18:43;;;;;;;18.07;11.87;;;;;;;7.41;42.52;100199.44;4158213;28;20236;-33
2022/03/22 03:20:45;;;;;;;15.67;11.27;;;;;;;7.52;41.99;100215.25;4158043;28;20246;-34
2022/03/22 03:22:47;;;;;;;15.60;10.70;;;;;;;7.86;41.70;100209.78;4152897;28;20235;-33
2022/03/22 03:24:48;;;;;;;16.73;11.40;;;;;;;7.70;41.87;100214.66;4158099;28;20310;-33
2022/03/22 03:26:50;;;;;;;16.80;11.73;;;;;;;7.90;41.54;100210.34;4157820;28;20737;-33
2022/03/22 03:28:52;;;;;;;13.73;10.13;;;;;;;7.99;41.58;100209.56;4153386;28;20279;-34
2022/03/22 03:30:54;;;;;;;13.40;9.90;;;;;;;7.75;41.73;100215.13;4154436;28;20725;-34
2022/03/22 03:32:56;;;;;;;17.00;11.70;;;;;;;7.66;41.69;100219.38;4151230;28;20240;-33
2022/03/22 03:34:57;;;;;;;17.30;11.80;;;;;;;7.82;41.49;100216.31;4150829;28;20723;-33
2022/03/22 03:36:59;;;;;;;15.20;11.30;;;;;;;7.94;41.49;100219.72;4155408;28;20244;-33
2022/03/22 03:39:03;;;;;;;15.60;11.90;;;;;;;7.88;41.53;100213.13;4157553;28;20240;-34
2022/03/22 03:43:25;;;;;;;16.40;12.07;;;;;;;7.62;42.14;100229.41;4153659;28;20229;-32
2022/03/22 03:47:47;;;;;;;15.60;11.90;;;;;;;7.39;42.25;100230.47;4157925;28;20242;-33
2022/03/22 03:49:54;;;;;;;18.17;11.93;;;;;;;7.79;41.57;100232.44;4157298;28;20721;-34
2022/03/22 03:51:56;;;;;;;16.53;11.60;;;;;;;7.73;41.86;100217.06;4157834;28;20310;-35
2022/03/22 03:53:57;;;;;;;18.37;12.30;;;;;;;7.60;41.82;100226.03;4156331;28;20240;-33
2022/03/22 03:55:59;;;;;;;17.83;12.53;;;;;;;7.44;42.29;100233.56;4156869;28;20233;-33
2022/03/22 03:58:01;;;;;;;17.37;12.47;;;;;;;7.36;42.15;100236.00;4149168;28;20779;-33
2022/03/22 04:00:04;;;;;;;15.47;11.70;;;;;;;7.47;42.08;100233.31;4150549;28;20722;-34
2022/03/22 04:02:07;;;;;;;16.63;12.13;;;;;;;7.19;42.44;100232.97;4154906;28;20237;-33
2022/03/22 04:04:09;;;;;;;15.57;12.23;;;;;;;7.07;42.54;100223.34;4157408;28;20330;-33
2022/03/22 04:06:11;;;;;;;13.87;11.37;;;;;;;7.16;42.41;100235.84;4153390;28;20239;-34
2022/03/22 04:08:13;;;;;;;13.83;11.73;;;;;;;7.34;42.14;100236.13;4156278;28;20309;-33
2022/03/22 04:10:14;;;;;;;17.60;11.77;;;;;;;7.20;42.58;100239.91;4153556;28;20243;-33
2022/03/22 04:12:16;;;;;;;15.73;11.87;;;;;;;7.10;42.59;100238.97;4155415;28;20237;-33
2022/03/22 04:14:18;;;;;;;20.07;11.80;;;;;;;7.46;42.35;100232.50;4152909;28;20234;-32
2022/03/22 04:16:20;;;;;;;16.73;11.70;;;;;;;7.52;42.32;100236.44;4154038;28;20775;-33
2022/03/22 04:18:23;;;;;;;18.43;11.57;;;;;;;7.41;42.58;100244.41;4158579;28;20232;-33
2022/03/22 04:20:27;;;;;;;14.40;11.37;;;;;;;7.04;43.18;100232.41;4152756;28;20959;-34
2022/03/22 04:22:30;;;;;;;17.60;12.27;;;;;;;7.13;43.04;100228.16;4153223;28;20796;-32
2022/03/22 04:24:31;;;;;;;15.57;11.60;;;;;;;7.51;42.54;100229.44;4171252;28;20240;-32
2022/03/22 04:26:38;;;;;;;15.40;11.30;;;;;;;7.44;42.58;100226.47;4156025;28;20314;-33
2022/03/22 04:33:20;;;;;;;15.73;11.97;;;;;;;7.45;42.83;100240.56;4158174;28;20240;-33
2022/03/22 04:35:27;;;;;;;17.83;12.53;;;;;;;7.21;43.15;100233.66;4151745;28;20244;-33
2022/03/22 04:37:30;;;;;;;16.67;11.40;;;;;;;7.19;43.40;100230.31;4155693;28;20228;-33
2022/03/22 04:39:31;;;;;;;17.90;12.87;;;;;;;7.48;43.16;100232.38;4157272;28;20260;-33
2022/03/22 04:43:44;;;;;;;16.07;11.90;;;;;;;7.43;43.76;100227.44;4175676;28;20285;-32
2022/03/22 04:45:45;;;;;;;15.67;11.60;;;;;;;7.69;43.39;100219.13;4178945;28;20261;-33
2022/03/22 04:47:47;;;;;;;15.93;12.27;;;;;;;7.42;43.73;100228.41;4190199;28;20348;-33
2022/03/22 04:49:49;;;;;;;16.40;13.10;;;;;;;7.30;44.18;100224.13;4190890;28;20584;-33
2022/03/22 04:56:45;;;;;;;18.83;13.23;;;;;;;7.11;44.95;100219.50;4180526;28;20244;-33
2022/03/22 04:58:48;;;;;;;18.30;13.13;;;;;;;6.73;45.87;100204.91;4180956;28;20228;-31
2022/03/22 05:00:50;;;;;;;16.90;12.33;;;;;;;6.70;45.73;100207.78;4171194;28;20691;-32
2022/03/22 05:02:52;;;;;;;16.47;11.73;;;;;;;6.38;45.88;100212.97;4189092;28;20297;-33
2022/03/22 05:04:54;;;;;;;16.23;13.03;;;;;;;6.52;45.75;100210.09;4185611;28;20250;-31
2022/03/22 05:06:56;;;;;;;17.50;13.13;;;;;;;6.78;45.12;100213.31;4176540;28;20242;-33
2022/03/22 05:08:57;;;;;;;19.67;14.00;;;;;;;6.39;46.07;100207.56;4186635;28;20299;-32
2022/03/22 05:10:59;;;;;;;18.67;12.23;;;;;;;6.50;46.02;100204.94;4175523;28;20293;-33
2022/03/22 05:13:01;;;;;;;17.50;12.30;;;;;;;6.60;45.93;100207.66;4191325;28;20227;-33
2022/03/22 05:15:04;;;;;;;22.50;12.17;;;;;;;6.03;46.88;100209.50;4184458;28;20341;-30
2022/03/22 05:17:05;;;;;;;15.80;12.20;;;;;;;6.72;45.58;100212.00;4175306;28;20243;-33
2022/03/22 05:19:09;;;;;;;18.97;13.37;;;;;;;6.87;45.42;100204.66;4184507;28;20243;-33
2022/03/22 05:21:11;;;;;;;17.87;13.23;;;;;;;6.74;45.62;100222.44;4191716;28;20239;-33
2022/03/22 05:23:12;;;;;;;19.37;12.90;;;;;;;6.64;45.99;100224.16;4187418;28;20242;-33
2022/03/22 05:25:15;;;;;;;16.63;12.40;;;;;;;6.54;45.95;100216.09;4185100;28;20251;-33
2022/03/22 05:27:17;;;;;;;21.33;12.97;;;;;;;6.68;45.80;100222.94;4178967;28;20750;-33
2022/03/22 05:29:19;;;;;;;19.70;12.83;;;;;;;6.96;45.32;100226.06;4190174;28;20425;-33
2022/03/22 05:31:21;;;;;;;19.43;13.10;;;;;;;7.04;45.34;100218.31;4170720;28;20248;-33
2022/03/22 05:33:23;;;;;;;16.17;12.60;;;;;;;7.03;44.99;100232.50;4182306;28;20502;-32
2022/03/22 05:35:24;;;;;;;18.07;12.63;;;;;;;7.17;45.09;100221.63;4176641;28;20686;-31
2022/03/22 05:37:26;;;;;;;17.97;12.90;;;;;;;7.47;44.41;100228.84;4183809;28;20227;-31
2022/03/22 05:39:30;;;;;;;19.33;11.90;;;;;;;6.76;46.16;100233.72;4179125;28;20242;-33
2022/03/22 05:41:33;;;;;;;20.13;12.90;;;;;;;6.98;45.96;100224.94;4181665;28;20232;-32
2022/03/22 05:43:36;;;;;;;17.00;13.47;;;;;;;7.39;44.86;100227.81;4178454;28;20350;-31
2022/03/22 05:45:37;;;;;;;16.33;12.07;;;;;;;6.81;46.38;100234.19;4181812;28;20236;-33
2022/03/22 05:47:39;;;;;;;16.43;12.77;;;;;;;7.20;45.37;100226.69;4183097;28;20232;-32
2022/03/22 05:49:41;;;;;;;18.47;13.23;;;;;;;7.17;45.29;100231.38;4180704;28;20703;-31
2022/03/22 05:51:43;;;;;;;19.53;13.90;;;;;;;7.07;45.87;100229.50;4178063;28;20256;-31
2022/03/22 05:53:45;;;;;;;17.63;12.47;;;;;;;6.93;45.73;100250.09;4174445;28;20232;-31
2022/03/22 05:55:47;;;;;;;16.53;12.57;;;;;;;7.34;45.46;100233.47;4177472;28;20253;-33
2022/03/22 05:57:49;;;;;;;16.17;12.10;;;;;;;7.53;44.66;100247.84;4181913;28;20230;-31
2022/03/22 05:59:51;;;;;;;19.43;12.80;;;;;;;7.99;43.95;100236.06;4181541;28;20261;-32
2022/03/22 06:01:52;;;;;;;18.63;13.47;;;;;;;7.35;44.65;100266.91;4176635;28;20228;-33
2022/03/22 06:03:54;;;;;;;23.33;13.63;;;;;;;7.39;45.72;100248.97;4181743;28;20243;-32
2022/03/22 06:05:56;;;;;;;22.73;12.80;;;;;;;7.88;44.15;100246.72;4179651;28;20254;-33
2022/03/22 06:07:59;;;;;;;17.60;12.50;;;;;;;8.14;43.73;100255.09;4177804;28;21668;-33
2022/03/22 06:10:01;;;;;;;17.97;13.83;;;;;;;8.52;43.12;100245.69;4181774;28;20365;-33
2022/03/22 06:12:06;;;;;;;18.00;13.03;;;;;;;7.87;43.56;100285.59;4178183;28;20239;-31
2022/03/22 06:14:07;;;;;;;16.13;12.13;;;;;;;8.17;43.94;100263.63;4190961;28;20592;-33
2022/03/22 06:16:09;;;;;;;16.50;13.03;;;;;;;8.34;43.57;100266.66;4184037;28;20751;-33
2022/03/22 06:18:11;;;;;;;16.50;13.37;;;;;;;7.79;44.16;100275.63;4181983;28;20297;-33
2022/03/22 06:20:21;;;;;;;17.03;13.17;;;;;;;7.79;44.79;100261.56;4176010;28;20239;-33
2022/03/22 06:22:22;;;;;;;16.50;12.57;;;;;;;8.05;44.16;100271.75;4170958;28;20281;-33
2022/03/22 06:24:24;;;;;;;19.90;13.13;;;;;;;8.49;43.35;100261.84;4174178;28;20244;-31
2022/03/22 06:26:26;;;;;;;17.63;12.87;;;;;;;8.42;43.20;100276.59;4174561;28;20765;-33
2022/03/22 06:28:28;;;;;;;16.10;12.80;;;;;;;7.78;44.13;100297.78;4170037;28;20605;-33
2022/03/22 06:30:29;;;;;;;17.77;13.13;;;;;;;7.24;45.60;100285.47;4183039;28;20765;-32
2022/03/22 06:32:38;;;;;;;17.87;13.20;;;;;;;7.91;44.34;100273.75;4173481;28;20236;-33
2022/03/22 06:34:47;;;;;;;19.87;13.97;;;;;;;8.31;43.44;100270.38;4184105;28;20235;-33
2022/03/22 06:36:49;;;;;;;18.23;12.57;;;;;;;8.58;43.19;100274.31;4189326;28;20242;-33
2022/03/22 06:38:50;;;;;;;15.13;11.70;;;;;;;8.25;43.81;100278.03;4190464;28;20712;-32
2022/03/22 06:40:53;;;;;;;17.77;13.63;;;;;;;8.18;43.97;100277.69;4181147;28;20247;-33
2022/03/22 06:42:59;;;;;;;19.47;13.93;;;;;;;8.51;43.37;100273.19;4176456;28;20294;-33
2022/03/22 06:45:01;;;;;;;19.27;13.73;;;;;;;8.08;44.13;100275.00;4181870;28;20227;-33
2022/03/22 06:47:03;;;;;;;20.77;13.97;;;;;;;8.45;43.45;100281.66;4173408;28;20240;-33
2022/03/22 06:49:06;;;;;;;18.30;14.10;;;;;;;8.41;43.69;100291.69;4174863;28;20598;-31
2022/03/22 06:51:08;;;;;;;19.00;15.93;;;;;;;8.51;43.56;100281.97;4181433;28;20279;-33
2022/03/22 06:53:09;;;;;;;23.13;15.53;;;;;;;8.50;43.55;100293.53;4190491;28;20231;-33
2022/03/22 06:55:13;;;;;;;20.63;17.17;;;;;;;8.57;43.81;100283.22;4180217;28;20968;-33
2022/03/22 06:57:15;;;;;;;19.80;16.20;;;;;;;8.54;44.50;100288.78;4179840;28;20620;-32
2022/03/22 06:59:17;;;;;;;23.37;16.93;;;;;;;8.77;44.34;100289.47;4174000;28;20755;-33
2022/03/22 07:01:19;;;;;;;22.37;14.90;;;;;;;8.72;44.79;100296.97;4185003;28;20626;-33
2022/03/22 07:03:21;;;;;;;21.10;15.83;;;;;;;8.53;45.04;100298.56;4179936;28;20749;-33
2022/03/22 07:05:23;;;;;;;20.93;14.77;;;;;;;8.44;45.71;100303.81;4172101;28;20250;-33
2022/03/22 07:07:24;;;;;;;20.23;15.43;;;;;;;8.90;44.83;100295.38;4178437;28;20696;-33
2022/03/22 07:09:26;;;;;;;18.23;13.80;;;;;;;8.68;45.03;100308.81;4185991;28;20608;-32
2022/03/22 07:13:49;;;;;;;17.97;14.60;;;;;;;8.08;45.67;100303.28;4181005;28;20316;-33
2022/03/22 07:15:51;;;;;;;20.53;14.03;;;;;;;8.64;44.79;100310.06;4178171;28;20232;-32
2022/03/22 07:17:53;;;;;;;19.13;14.53;;;;;;;8.79;44.50;100315.84;4182066;28;20809;-32
2022/03/22 07:19:55;;;;;;;20.30;14.97;;;;;;;8.35;45.33;100314.22;4174296;28;20231;-32
2022/03/22 07:22:00;;;;;;;21.53;16.07;;;;;;;8.28;45.37;100312.22;4184990;28;20762;-33
2022/03/22 07:24:01;;;;;;;19.73;15.47;;;;;;;8.57;44.73;100312.38;4189781;28;20239;-33
2022/03/22 07:26:03;;;;;;;19.80;13.90;;;;;;;7.65;45.74;100315.66;4173664;28;20694;-30
2022/03/22 07:28:05;;;;;;;17.20;12.90;;;;;;;7.87;46.48;100306.78;4182409;28;20269;-33
2022/03/22 07:30:07;;;;;;;18.77;14.13;;;;;;;8.07;46.15;100312.19;4181504;28;20655;-32
2022/03/22 07:32:09;;;;;;;22.17;15.17;;;;;;;7.70;46.59;100304.66;4189971;28;20447;-33
2022/03/22 07:34:15;;;;;;;17.20;13.67;;;;;;;8.34;45.36;100309.06;4181696;28;20254;-32
2022/03/22 07:36:16;;;;;;;19.27;13.77;;;;;;;8.48;45.04;100299.94;4167580;28;20267;-33
2022/03/22 07:38:38;;;;;;;18.33;13.67;;;;;;;8.18;45.73;100296.25;4173838;28;20346;-33
2022/03/22 07:40:40;;;;;;;18.20;13.50;;;;;;;9.02;44.00;100296.09;4171379;28;20239;-32
2022/03/22 07:42:41;;;;;;;21.57;13.87;;;;;;;8.58;44.57;100311.44;4183502;28;20231;-32
2022/03/22 07:44:43;;;;;;;18.70;13.43;;;;;;;8.92;43.98;100309.31;4176068;28;20243;-33
2022/03/22 07:46:46;;;;;;;23.47;13.83;;;;;;;8.75;44.44;100320.56;4185482;28;20244;-32
2022/03/22 07:48:48;;;;;;;18.30;13.77;;;;;;;8.32;45.01;100327.75;4186326;28;20231;-33
2022/03/22 07:53:10;;;;;;;16.73;13.23;;;;;;;8.71;44.50;100314.69;4173914;28;20235;-33
2022/03/22 07:55:12;;;;;;;18.10;13.30;;;;;;;8.61;44.50;100324.44;4177763;28;20288;-33
2022/03/22 07:57:14;;;;;;;18.40;13.10;;;;;;;8.42;44.78;100337.56;4176891;28;20531;-33
2022/03/22 07:59:15;;;;;;;16.70;13.10;;;;;;;8.60;44.90;100316.59;4186084;28;20755;-32
2022/03/22 08:01:17;;;;;;;18.70;12.73;;;;;;;8.45;44.90;100340.78;4188627;28;20247;-33
2022/03/22 08:03:19;;;;;;;17.63;13.30;;;;;;;8.36;44.71;100338.94;4186992;28;20285;-33
2022/03/22 08:05:22;;;;;;;19.63;13.43;;;;;;;8.51;44.98;100329.66;4175177;28;20236;-33
2022/03/22 08:07:24;;;;;;;18.20;13.33;;;;;;;8.57;44.47;100334.44;4182437;28;20694;-33
2022/03/22 08:09:26;;;;;;;15.80;12.60;;;;;;;9.08;43.56;100338.00;4182494;28;20723;-33
2022/03/22 08:11:28;;;;;;;16.03;12.60;;;;;;;8.93;45.06;100331.41;4180235;28;20688;-32
2022/03/22 08:13:29;;;;;;;19.27;14.03;;;;;;;8.91;44.14;100344.78;4177878;28;20615;-32
2022/03/22 08:15:31;;;;;;;17.33;13.73;;;;;;;8.47;46.59;100345.97;4187144;28;20270;-33
2022/03/22 08:17:33;;;;;;;17.27;14.13;;;;;;;9.21;43.90;100331.63;4174226;28;20228;-33
2022/03/22 08:19:37;;;;;;;20.07;13.47;;;;;;;9.33;43.68;100336.69;4188337;28;20223;-33
2022/03/22 08:21:39;;;;;;;15.70;13.03;;;;;;;9.05;44.37;100359.50;4178984;28;20645;-34
2022/03/22 08:23:40;;;;;;;17.73;13.33;;;;;;;8.87;45.12;100347.84;4176142;28;20231;-33
2022/03/22 08:25:43;;;;;;;16.57;13.27;;;;;;;9.73;42.91;100321.66;4172601;28;20227;-32
2022/03/22 08:27:45;;;;;;;19.23;13.47;;;;;;;9.59;42.99;100333.53;4174691;28;20642;-33
2022/03/22 08:29:47;;;;;;;19.60;13.17;;;;;;;9.14;43.28;100358.69;4176684;28;20243;-33
2022/03/22 08:31:51;;;;;;;20.10;13.40;;;;;;;8.45;44.28;100377.06;4176807;28;20236;-32
2022/03/22 08:33:53;;;;;;;15.53;12.47;;;;;;;8.90;44.83;100351.06;4181785;28;20261;-33
2022/03/22 08:35:55;;;;;;;18.80;13.93;;;;;;;8.17;45.37;100352.84;4182261;28;20232;-33
2022/03/22 08:37:57;;;;;;;18.77;12.83;;;;;;;8.92;45.25;100340.31;4177215;28;20242;-32
2022/03/22 08:39:58;;;;;;;17.60;13.07;;;;;;;9.43;44.14;100334.03;4177227;28;20646;-34
2022/03/22 08:42:00;;;;;;;16.10;13.60;;;;;;;9.62;43.60;100327.09;4176307;28;20293;-34
2022/03/22 08:44:02;;;;;;;17.53;13.23;;;;;;;10.61;41.82;100297.59;4185138;28;20251;-32
2022/03/22 08:46:05;;;;;;;17.87;13.07;;;;;;;10.52;41.79;100307.28;4174462;28;20285;-33
2022/03/22 08:48:11;;;;;;;16.00;12.70;;;;;;;10.46;41.87;100329.09;4176601;28;20236;-33
2022/03/22 08:50:17;;;;;;;18.23;13.80;;;;;;;10.39;41.53;100331.50;4176664;28;20239;-33
2022/03/22 08:52:19;;;;;;;20.40;13.40;;;;;;;10.08;43.09;100357.44;4173607;28;20727;-33
2022/03/22 08:54:21;;;;;;;18.80;13.13;;;;;;;9.94;44.95;100337.47;4178764;28;20311;-32
2022/03/22 08:56:23;;;;;;;18.77;13.07;;;;;;;9.84;44.25;100337.47;4184111;28;20232;-33
2022/03/22 08:58:25;;;;;;;17.07;12.73;;;;;;;10.12;42.90;100329.59;4177112;28;20282;-33
2022/03/22 09:00:27;;;;;;;17.13;13.37;;;;;;;10.84;40.95;100287.44;4176876;28;20242;-33
2022/03/22 09:02:28;;;;;;;16.57;12.77;;;;;;;10.33;42.58;100336.56;4176107;28;20220;-33
2022/03/22 09:06:51;;;;;;;16.70;13.07;;;;;;;11.04;41.05;100293.50;4176848;28;20244;-33
2022/03/22 09:08:52;;;;;;;18.60;13.03;;;;;;;10.61;42.56;100338.28;4176195;28;20240;-33
2022/03/22 09:10:54;;;;;;;20.53;12.83;;;;;;;10.31;43.10;100363.28;4176587;28;20254;-32
2022/03/22 09:12:57;;;;;;;18.20;12.93;;;;;;;9.76;44.00;100384.28;4176177;28;20754;-34
2022/03/22 09:14:58;;;;;;;18.47;13.47;;;;;;;10.30;44.31;100347.50;4176247;28;20696;-32
2022/03/22 09:17:00;;;;;;;15.20;12.10;;;;;;;11.33;42.28;100303.13;4170564;28;20273;-34
2022/03/22 09:19:02;;;;;;;17.33;12.73;;;;;;;10.22;43.44;100364.16;4176828;28;20236;-33
2022/03/22 09:21:03;;;;;;;21.37;13.53;;;;;;;10.34;44.46;100346.22;4175782;28;20240;-34
2022/03/22 09:23:06;;;;;;;19.90;13.47;;;;;;;10.93;42.89;100330.94;4176259;28;20334;-33
2022/03/22 09:25:09;;;;;;;21.27;13.53;;;;;;;10.80;42.66;100339.25;4184874;28;20250;-33
2022/03/22 09:27:11;;;;;;;18.27;13.63;;;;;;;10.91;43.07;100339.06;4173509;28;20244;-31
2022/03/22 09:29:12;;;;;;;17.10;13.13;;;;;;;11.03;43.19;100336.22;4176540;28;20238;-33
2022/03/22 09:31:14;;;;;;;18.33;13.43;;;;;;;10.36;44.01;100344.25;4175995;28;20252;-33
2022/03/22 09:33:17;;;;;;;16.40;12.77;;;;;;;10.98;42.62;100347.31;4175902;28;20240;-33
2022/03/22 09:35:22;;;;;;;17.57;13.37;;;;;;;10.90;43.41;100341.88;4176418;28;20875;-33
2022/03/22 09:37:24;;;;;;;17.97;13.20;;;;;;;10.32;44.66;100351.69;4176399;28;20296;-34
2022/03/22 09:39:26;;;;;;;19.77;13.47;;;;;;;11.68;42.24;100310.31;4176278;28;20262;-34
2022/03/22 09:41:30;;;;;;;18.60;13.77;;;;;;;9.75;44.26;100379.94;4175481;28;20290;-34
2022/03/22 09:43:35;;;;;;;18.47;12.60;;;;;;;10.48;45.12;100347.59;4179633;28;20238;-33
2022/03/22 09:45:42;;;;;;;17.77;12.83;;;;;;;11.22;43.42;100322.78;4176762;28;20263;-32
2022/03/22 09:47:48;;;;;;;19.70;13.37;;;;;;;11.61;43.39;100309.25;4184860;28;20242;-34
2022/03/22 09:49:51;;;;;;;17.57;13.47;;;;;;;11.30;43.17;100324.72;4178855;28;20236;-34
2022/03/22 09:51:53;;;;;;;17.87;13.67;;;;;;;12.07;43.04;100291.34;4175371;28;20297;-34